createdAt,value
2022-09-03T00:00:09.320Z,7.80
2022-09-03T00:05:23.698Z,7.85
2022-09-03T00:10:37.017Z,7.91
2022-09-03T00:15:44.683Z,7.98
2022-09-03T00:20:58.077Z,8.04
2022-09-03T00:26:26.110Z,8.11
2022-09-03T00:31:39.387Z,8.17
2022-09-03T00:36:48.138Z,8.21
2022-09-03T00:42:12.200Z,8.24
2022-09-03T00:47:26.468Z,8.25
2022-09-03T00:52:47.873Z,8.25
2022-09-03T00:58:15.350Z,8.24
2022-09-03T01:03:30.075Z,8.23
2022-09-03T01:08:58.029Z,8.19
2022-09-03T01:14:19.270Z,8.12
2022-09-03T01:19:51.662Z,8.06
2022-09-03T01:25:14.177Z,8.00
2022-09-03T01:30:24.448Z,7.95
2022-09-03T01:35:40.735Z,7.89
2022-09-03T01:40:54.339Z,7.84
2022-09-03T01:46:07.317Z,7.79
2022-09-03T01:51:21.920Z,7.74
2022-09-03T01:56:40.694Z,7.69
2022-09-03T02:01:55.014Z,7.65
2022-09-03T02:07:05.220Z,7.61
2022-09-03T02:12:19.097Z,7.56
2022-09-03T02:17:27.111Z,7.49
2022-09-03T02:22:35.220Z,7.41
2022-09-03T02:27:43.461Z,7.34
2022-09-03T02:32:50.988Z,7.26
2022-09-03T02:37:58.360Z,7.18
2022-09-03T02:43:08.818Z,7.11
2022-09-03T02:48:19.791Z,7.03
2022-09-03T02:53:28.760Z,6.94
2022-09-03T02:58:36.225Z,6.86
2022-09-03T03:03:44.563Z,6.75
2022-09-03T03:08:52.663Z,6.66
2022-09-03T03:14:00.297Z,6.56
2022-09-03T03:19:07.997Z,6.48
2022-09-03T03:24:15.758Z,6.38
2022-09-03T03:29:25.792Z,6.29
2022-09-03T03:34:33.694Z,6.22
2022-09-03T03:39:41.096Z,6.16
2022-09-03T03:44:48.522Z,6.12
2022-09-03T03:49:55.708Z,6.10
2022-09-03T03:55:03.289Z,6.03
2022-09-03T04:00:12.496Z,5.99
2022-09-03T04:05:23.212Z,5.93
2022-09-03T04:10:31.646Z,5.89
2022-09-03T04:15:38.898Z,5.84
2022-09-03T04:20:46.208Z,5.81
2022-09-03T04:25:57.646Z,5.77
2022-09-03T04:31:07.605Z,5.76
2022-09-03T04:36:17.303Z,5.74
2022-09-03T04:41:27.312Z,5.81
2022-09-03T04:46:35.040Z,5.93
2022-09-03T04:51:42.607Z,6.12
2022-09-03T04:56:50.221Z,6.37
2022-09-03T05:01:57.992Z,6.69
2022-09-03T05:07:05.905Z,7.04
2022-09-03T05:12:13.714Z,7.39
2022-09-03T05:17:21.363Z,7.69
2022-09-03T05:22:29.316Z,7.98
2022-09-03T05:27:37.179Z,8.24
2022-09-03T05:32:44.740Z,8.50
2022-09-03T05:37:52.322Z,8.77
2022-09-03T05:43:07.857Z,9.01
2022-09-03T05:48:15.694Z,9.24
2022-09-03T05:53:23.850Z,9.51
2022-09-03T05:58:34.312Z,9.73
2022-09-03T06:03:41.771Z,9.95
2022-09-03T06:08:52.018Z,10.13
2022-09-03T06:14:01.776Z,10.31
2022-09-03T06:19:10.038Z,10.52
2022-09-03T06:24:19.375Z,10.71
2022-09-03T06:29:27.471Z,10.89
2022-09-03T06:34:35.220Z,11.05
2022-09-03T06:39:42.519Z,11.23
2022-09-03T06:44:50.066Z,11.40
2022-09-03T06:49:57.311Z,11.58
2022-09-03T06:55:04.792Z,11.76
2022-09-03T07:00:14.612Z,11.96
2022-09-03T07:05:22.159Z,12.15
2022-09-03T07:10:29.324Z,12.34
2022-09-03T07:15:37.101Z,12.53
2022-09-03T07:20:44.497Z,12.69
2022-09-03T07:25:58.782Z,12.85
2022-09-03T07:31:09.347Z,13.02
2022-09-03T07:36:18.953Z,13.17
2022-09-03T07:41:28.691Z,13.32
2022-09-03T07:46:38.452Z,13.45
2022-09-03T07:51:46.866Z,13.58
2022-09-03T07:56:54.197Z,13.70
2022-09-03T08:02:01.597Z,13.82
2022-09-03T08:07:09.032Z,13.93
2022-09-03T08:12:16.195Z,14.05
2022-09-03T08:17:23.516Z,14.24
2022-09-03T08:22:31.499Z,14.48
2022-09-03T08:27:38.702Z,14.67
2022-09-03T08:32:46.105Z,14.81
2022-09-03T08:37:56.769Z,14.92
2022-09-03T08:43:19.363Z,15.03
2022-09-03T08:48:29.699Z,15.12
2022-09-03T08:53:43.904Z,15.20
2022-09-03T08:58:51.197Z,15.27
2022-09-03T09:04:10.299Z,15.35
2022-09-03T09:09:32.202Z,15.44
2022-09-03T09:14:47.205Z,15.51
2022-09-03T09:20:06.557Z,15.61
2022-09-03T09:25:18.519Z,15.71
2022-09-03T09:30:23.905Z,15.77
2022-09-03T09:35:31.961Z,15.83
2022-09-03T09:40:44.846Z,15.85
2022-09-03T09:45:54.601Z,15.93
2022-09-03T09:51:12.184Z,16.03
2022-09-03T09:56:27.065Z,16.06
2022-09-03T10:01:34.329Z,16.18
2022-09-03T10:06:57.634Z,16.25
2022-09-03T10:12:16.031Z,16.30
2022-09-03T10:17:37.313Z,16.33
2022-09-03T10:22:56.237Z,16.38
2022-09-03T10:28:04.689Z,16.43
2022-09-03T10:33:20.604Z,16.52
2022-09-03T10:38:34.292Z,16.62
2022-09-03T10:44:02.063Z,16.72
2022-09-03T10:49:42.351Z,16.86
2022-09-03T10:55:10.664Z,17.05
2022-09-03T11:00:20.625Z,17.17
2022-09-03T11:05:37.554Z,17.28
2022-09-03T11:10:50.795Z,17.37
2022-09-03T11:16:01.512Z,17.45
2022-09-03T11:21:13.230Z,17.50
2022-09-03T11:26:23.350Z,17.55
2022-09-03T11:31:48.545Z,17.61
2022-09-03T11:37:06.354Z,17.73
2022-09-03T11:42:26.381Z,17.90
2022-09-03T11:47:44.247Z,18.10
2022-09-03T11:52:53.869Z,18.23
2022-09-03T11:58:12.347Z,18.36
2022-09-03T12:03:20.090Z,18.47
2022-09-03T12:09:02.474Z,18.56
2022-09-03T12:14:15.570Z,18.64
2022-09-03T12:19:31.209Z,18.67
2022-09-03T12:24:38.614Z,18.68
2022-09-03T12:29:58.630Z,18.69
2022-09-03T12:46:21.718Z,18.70
2022-09-03T12:51:56.941Z,18.68
2022-09-03T12:57:06.388Z,18.67
2022-09-03T13:02:23.630Z,18.64
2022-09-03T13:07:37.698Z,18.63
2022-09-03T13:12:53.337Z,18.64
2022-09-03T13:18:27.103Z,18.62
2022-09-03T13:23:53.541Z,18.57
2022-09-03T13:29:17.408Z,18.52
2022-09-03T13:34:30.058Z,18.49
2022-09-03T13:39:45.288Z,18.47
2022-09-03T13:44:59.835Z,18.48
2022-09-03T13:50:27.613Z,18.55
2022-09-03T13:55:45.468Z,18.63
2022-09-03T14:00:56.439Z,18.66
2022-09-03T14:06:11.331Z,18.68
2022-09-03T14:11:31.074Z,18.69
2022-09-03T14:16:44.872Z,18.68
2022-09-03T14:22:00.335Z,18.70
2022-09-03T14:27:08.266Z,18.70
2022-09-03T14:32:29.286Z,18.71
2022-09-03T14:38:04.323Z,18.74
2022-09-03T14:43:28.474Z,18.75
2022-09-03T14:49:02.856Z,18.75
2022-09-03T14:54:30.296Z,18.72
2022-09-03T14:59:56.271Z,18.59
2022-09-03T15:05:16.702Z,18.64
2022-09-03T15:10:36.839Z,18.59
2022-09-03T15:16:13.810Z,18.54
2022-09-03T15:21:42.875Z,18.52
2022-09-03T15:27:03.796Z,18.50
2022-09-03T15:32:22.590Z,18.46
2022-09-03T15:37:35.054Z,18.43
2022-09-03T15:42:45.252Z,18.40
2022-09-03T15:47:58.548Z,18.37
2022-09-03T15:53:17.034Z,18.34
2022-09-03T15:58:31.275Z,18.31
2022-09-03T16:03:47.125Z,18.27
2022-09-03T16:09:01.763Z,18.20
2022-09-03T16:14:17.086Z,18.14
2022-09-03T16:19:30.715Z,18.07
2022-09-03T16:24:48.967Z,18.00
2022-09-03T16:30:03.811Z,17.92
2022-09-03T16:35:24.054Z,17.86
2022-09-03T16:40:41.257Z,17.79
2022-09-03T16:46:01.067Z,17.71
2022-09-03T16:51:16.540Z,17.61
2022-09-03T16:56:40.380Z,17.54
2022-09-03T17:02:13.848Z,17.44
2022-09-03T17:07:49.026Z,17.34
2022-09-03T17:13:07.234Z,17.23
2022-09-03T17:18:39.817Z,17.07
2022-09-03T17:24:19.283Z,17.03
2022-09-03T17:29:42.132Z,16.91
2022-09-03T17:35:02.043Z,16.80
2022-09-03T17:40:23.957Z,16.69
2022-09-03T17:45:47.929Z,16.55
2022-09-03T17:51:02.701Z,16.38
2022-09-03T17:56:13.798Z,16.21
2022-09-03T18:01:29.340Z,16.05
2022-09-03T18:06:52.585Z,15.87
2022-09-03T18:12:08.261Z,15.72
2022-09-03T18:17:21.423Z,15.59
2022-09-03T18:22:52.819Z,15.47
2022-09-03T18:28:23.037Z,15.33
2022-09-03T18:33:50.821Z,15.17
2022-09-03T18:39:29.499Z,15.02
2022-09-03T18:45:20.706Z,14.86
2022-09-03T18:50:54.316Z,14.72
2022-09-03T18:56:28.576Z,14.60
2022-09-03T19:01:57.197Z,14.49
2022-09-03T19:07:28.545Z,14.37
2022-09-03T19:13:07.177Z,14.30
2022-09-03T19:18:47.970Z,14.20
2022-09-03T19:24:21.409Z,14.10
2022-09-03T19:30:02.786Z,14.01
2022-09-03T19:35:36.401Z,13.94
2022-09-03T19:41:21.812Z,13.88
2022-09-03T19:46:56.672Z,13.80
2022-09-03T19:52:29.360Z,13.73
2022-09-03T19:57:53.980Z,13.66
2022-09-03T20:03:21.972Z,13.58
2022-09-03T20:08:49.166Z,13.52
2022-09-03T20:14:17.639Z,13.45
2022-09-03T20:19:34.494Z,13.39
2022-09-03T20:24:56.825Z,13.33
2022-09-03T20:30:09.736Z,13.26
2022-09-03T20:35:24.228Z,13.20
2022-09-03T20:40:43.634Z,13.14
2022-09-03T20:46:09.579Z,13.08
2022-09-03T20:51:23.350Z,13.02
2022-09-03T20:56:35.513Z,12.96
2022-09-03T21:01:57.867Z,12.90
2022-09-03T21:07:18.712Z,12.84
2022-09-03T21:12:38.709Z,12.78
2022-09-03T21:18:00.465Z,12.73
2022-09-03T21:23:21.289Z,12.67
2022-09-03T21:28:38.944Z,12.62
2022-09-03T21:33:50.659Z,12.55
2022-09-03T21:39:07.693Z,12.51
2022-09-03T21:44:21.235Z,12.45
2022-09-03T21:49:33.670Z,12.41
2022-09-03T21:54:41.233Z,12.36
2022-09-03T22:00:20.442Z,12.29
2022-09-03T22:05:31.350Z,12.25
2022-09-03T22:10:59.240Z,12.20
2022-09-03T22:16:15.146Z,12.14
2022-09-03T22:21:29.385Z,12.11
2022-09-03T22:26:46.838Z,12.05
2022-09-03T22:32:00.680Z,12.02
2022-09-03T22:37:15.978Z,11.98
2022-09-03T22:42:47.532Z,11.93
2022-09-03T22:48:08.539Z,11.89
2022-09-03T22:53:28.058Z,11.85
2022-09-03T22:58:39.212Z,11.81
2022-09-03T23:03:55.729Z,11.79
2022-09-03T23:09:08.133Z,11.75
2022-09-03T23:14:18.719Z,11.74
2022-09-03T23:19:37.046Z,11.72
2022-09-03T23:24:50.100Z,11.71
2022-09-03T23:29:58.973Z,11.68
2022-09-03T23:35:12.440Z,11.68
2022-09-03T23:40:41.680Z,11.67
2022-09-03T23:46:01.107Z,11.66
2022-09-03T23:51:17.638Z,11.59
2022-09-03T23:56:49.110Z,11.66
